Meteo Giornale » Osservazioni meteo Yemen » Sayun
ore: 09:00 - Osservazioni Meteo Sayun
Lat. 15° 58' N Lon. 48° 48' E Alt. 701 metri s.l.m.
35 °C
Sereno
Temp. 24 Ore
30 °C
43 °C
Ovest
7.4 Km/h
Dew point 16 °C
Umidità 32 %
Visibilità 10 Km
Il sole sorge alle ore 05:31
Il sole tramonta alle ore 17:57
| Data e Ora | Cielo e Fenomeni | T °C | DP °C | Um. % | Pres. hPa | Vis. km | Vento km/h | |
|---|---|---|---|---|---|---|---|---|
| Oggi h: 09:00 | Sereno | 35 | 16 | 32 | 1010 | 10 | O 7.4 | |
| Oggi h: 08:00 | Sereno | 32 | 18 | 43 | 1010 | 10 | N 5.5 | |
| Oggi h: 07:00 | Sereno | 32 | 18 | 43 | 1010 | 10 | N 3.7 | |
| Oggi h: 06:00 | Sereno | 31 | 17 | 43 | 1010 | 10 | S/SO 7.4 | |
| Oggi h: 05:00 | Sereno | 32 | 17 | 40 | 1009 | 10 | N 5.5 | |
| Oggi h: 04:00 | Sereno | 31 | 16 | 40 | 1009 | 10 | S/SO 9.3 | |
| Oggi h: 03:00 | Nuvoloso | 31 | 16 | 40 | 1008 | 10 | S/SO 9.3 | |
| Oggi h: 02:00 | Nuvoloso | 30 | 17 | 45 | 1008 | 10 | N 3.7 | |
| Oggi h: 01:00 | Nuvoloso | 31 | 17 | 43 | 1008 | 10 | N 0 | |
| Oggi h: 00:00 | Nuvoloso | 33 | 17 | 38 | 1008 | 10 | N 3.7 | |
| Ieri h: 23:00 | Nuvoloso | 34 | 16 | 34 | 1008 | 10 | N 5.5 | |
| Ieri h: 22:00 | Nuvoloso | 35 | 17 | 34 | 1008 | 10 | N 7.4 | |
| Ieri h: 21:00 | Nuvoloso | 36 | 17 | 32 | 1008 | 10 | N 3.7 | |
| Ieri h: 20:00 | Nuvoloso | 36 | 18 | 34 | 1007 | 10 | S/SE 22.2 | |
| Ieri h: 19:00 | Nuvoloso | 39 | 15 | 24 | 1005 | 10 | S 14.8 | |
| Ieri h: 18:00 | Nuvoloso | 41 | 6 | 12 | 1004 | 10 | E/NE 13 | |
| Ieri h: 17:00 | Nuvoloso | 42 | 7 | 12 | 1004 | 10 | NE 9.3 | |
| Ieri h: 16:00 | Nuvoloso | 43 | 6 | 10 | 1004 | 10 | O 7.4 | |
| Ieri h: 15:00 | Nuvoloso | 42 | 9 | 14 | 1004 | 10 | N 5.5 | |
| Ieri h: 14:00 | Poco Nuvoloso | 42 | 10 | 14 | 1005 | 10 | N 7.4 | |
| Ieri h: 12:00 | Sereno | 40 | 11 | 17 | 1007 | 10 | SO 7.4 | |
| Ieri h: 11:00 | Sereno | 39 | 12 | 20 | 1008 | 10 | S/SO 11.1 | |
| Ieri h: 10:00 | Sereno | 38 | 12 | 21 | 1008 | 10 | S 14.8 | |



